Time;durP1;ratioP1;P1;durP2;ratioP2;P2;SDS_P1;SDS_P2;PMS_P1;PMS_P2;Temp;Humidity;BMP_temperature;BMP_pressure;BME280_temperature;BME280_humidity;BME280_pressure;Samples;Min_cycle;Max_cycle;Signal;HPM_P1;HPM_P2
2021/09/17 00:00:52;;;;;;;18.05;11.08;;;;;;;;;;1891958;74;21086;-50
2021/09/17 00:03:21;;;;;;;20.20;11.03;;;;;;;;;;1891854;75;21038;-48
2021/09/17 00:05:50;;;;;;;22.80;11.93;;;;;;;;;;1891847;76;21042;-46
2021/09/17 00:08:19;;;;;;;17.57;11.33;;;;;;;;;;1892000;75;21042;-50
2021/09/17 00:10:48;;;;;;;30.10;12.40;;;;;;;;;;1891882;76;21026;-50
2021/09/17 00:13:16;;;;;;;24.45;11.97;;;;;;;;;;1891964;75;21030;-49
2021/09/17 00:15:45;;;;;;;21.02;12.10;;;;;;;;;;1891969;74;21058;-49
2021/09/17 00:18:15;;;;;;;19.20;11.95;;;;;;;;;;1891992;75;21034;-49
2021/09/17 00:20:44;;;;;;;18.40;11.68;;;;;;;;;;1891944;74;21065;-50
2021/09/17 00:23:13;;;;;;;31.82;12.18;;;;;;;;;;1891881;75;21046;-49
2021/09/17 00:25:42;;;;;;;25.62;12.70;;;;;;;;;;1891904;76;21100;-50
2021/09/17 00:28:11;;;;;;;22.90;13.35;;;;;;;;;;1891840;76;21038;-50
2021/09/17 00:30:40;;;;;;;22.05;12.07;;;;;;;;;;1891898;75;21100;-49
2021/09/17 00:33:09;;;;;;;18.95;12.37;;;;;;;;;;1891803;75;21022;-49
2021/09/17 00:35:38;;;;;;;27.62;13.50;;;;;;;;;;1891918;74;21015;-50
2021/09/17 00:38:07;;;;;;;22.17;13.48;;;;;;;;;;1891988;76;21042;-50
2021/09/17 00:40:37;;;;;;;27.35;13.72;;;;;;;;;;1891862;75;21034;-50
2021/09/17 00:43:06;;;;;;;19.73;12.43;;;;;;;;;;1891848;75;21022;-50
2021/09/17 00:45:35;;;;;;;22.58;12.78;;;;;;;;;;1891814;75;21144;-50
2021/09/17 00:48:04;;;;;;;24.37;12.75;;;;;;;;;;1891903;76;21476;-50
2021/09/17 00:50:34;;;;;;;22.98;12.45;;;;;;;;;;1883286;76;21022;-50
2021/09/17 00:53:02;;;;;;;23.47;14.33;;;;;;;;;;1882976;75;21084;-50
2021/09/17 00:55:32;;;;;;;21.07;12.30;;;;;;;;;;1882996;75;21083;-50
2021/09/17 00:58:01;;;;;;;24.35;12.80;;;;;;;;;;1882958;76;21021;-49
2021/09/17 01:00:29;;;;;;;21.25;14.53;;;;;;;;;;1882848;75;21091;-50
2021/09/17 01:02:58;;;;;;;22.42;13.90;;;;;;;;;;1882862;75;21119;-50
2021/09/17 01:05:27;;;;;;;23.05;13.83;;;;;;;;;;1882910;75;21100;-48
2021/09/17 01:07:56;;;;;;;21.95;13.25;;;;;;;;;;1882910;76;21092;-51
2021/09/17 01:10:25;;;;;;;26.80;13.72;;;;;;;;;;1882961;75;21064;-47
2021/09/17 01:12:54;;;;;;;18.85;13.83;;;;;;;;;;1882865;75;21042;-49
2021/09/17 01:15:23;;;;;;;24.98;14.90;;;;;;;;;;1882886;75;21037;-48
2021/09/17 01:17:52;;;;;;;18.40;13.45;;;;;;;;;;1883015;76;21033;-50
2021/09/17 01:20:21;;;;;;;17.52;12.58;;;;;;;;;;1882894;75;21053;-50
2021/09/17 01:22:50;;;;;;;22.60;13.03;;;;;;;;;;1882872;75;21027;-50
2021/09/17 01:25:20;;;;;;;24.75;13.22;;;;;;;;;;1882814;75;20993;-49
2021/09/17 01:27:50;;;;;;;21.87;12.30;;;;;;;;;;1882937;76;21464;-49
2021/09/17 01:30:19;;;;;;;21.42;12.68;;;;;;;;;;1882969;75;21097;-50
2021/09/17 01:32:48;;;;;;;24.18;13.32;;;;;;;;;;1882821;76;21083;-50
2021/09/17 01:35:18;;;;;;;22.13;12.88;;;;;;;;;;1882832;76;21053;-49
2021/09/17 01:37:47;;;;;;;22.67;12.98;;;;;;;;;;1882907;75;21014;-50
2021/09/17 01:40:16;;;;;;;21.05;12.60;;;;;;;;;;1882944;76;21021;-49
2021/09/17 01:42:45;;;;;;;23.20;12.20;;;;;;;;;;1882935;76;21076;-49
2021/09/17 01:45:14;;;;;;;23.98;13.65;;;;;;;;;;1882891;76;21105;-50
2021/09/17 01:47:43;;;;;;;23.22;13.48;;;;;;;;;;1882897;75;21113;-50
2021/09/17 01:50:13;;;;;;;36.42;15.23;;;;;;;;;;1888726;74;21102;-50
2021/09/17 01:52:42;;;;;;;21.50;13.28;;;;;;;;;;1892014;76;21191;-50
2021/09/17 01:55:11;;;;;;;25.40;14.23;;;;;;;;;;1891930;76;21088;-48
2021/09/17 01:57:39;;;;;;;23.27;14.00;;;;;;;;;;1892027;75;21022;-50
2021/09/17 02:00:10;;;;;;;22.25;13.08;;;;;;;;;;1892006;76;21034;-50
2021/09/17 02:02:39;;;;;;;23.35;13.20;;;;;;;;;;1891915;74;21030;-50
2021/09/17 02:05:08;;;;;;;22.67;13.45;;;;;;;;;;1892036;74;21026;-47
2021/09/17 02:07:36;;;;;;;22.95;12.73;;;;;;;;;;1891977;76;21030;-48
2021/09/17 02:10:06;;;;;;;20.80;13.75;;;;;;;;;;1892038;76;21131;-51
2021/09/17 02:12:35;;;;;;;21.70;12.33;;;;;;;;;;1892014;75;21026;-49
2021/09/17 02:15:04;;;;;;;42.35;14.83;;;;;;;;;;1891997;75;21046;-50
2021/09/17 02:17:33;;;;;;;27.37;14.33;;;;;;;;;;1892030;76;21084;-47
2021/09/17 02:20:02;;;;;;;21.20;12.98;;;;;;;;;;1891899;76;21030;-50
2021/09/17 02:22:31;;;;;;;24.12;13.55;;;;;;;;;;1891958;75;21015;-49
2021/09/17 02:25:00;;;;;;;22.50;13.53;;;;;;;;;;1891953;74;21054;-49
2021/09/17 02:27:29;;;;;;;27.77;15.00;;;;;;;;;;1892031;75;21104;-47
2021/09/17 02:29:58;;;;;;;20.77;13.20;;;;;;;;;;1891903;74;21234;-50
2021/09/17 02:32:26;;;;;;;25.85;13.72;;;;;;;;;;1891918;75;21022;-50
2021/09/17 02:34:55;;;;;;;20.35;12.68;;;;;;;;;;1891911;76;21073;-50
2021/09/17 02:37:23;;;;;;;21.27;13.18;;;;;;;;;;1891890;75;21022;-50
2021/09/17 02:39:52;;;;;;;20.20;13.05;;;;;;;;;;1891968;74;21026;-49
2021/09/17 02:42:21;;;;;;;27.32;13.45;;;;;;;;;;1891997;76;21014;-50
2021/09/17 02:44:52;;;;;;;19.23;12.85;;;;;;;;;;1891940;74;21015;-49
2021/09/17 02:47:21;;;;;;;26.68;14.65;;;;;;;;;;1891929;74;21492;-47
2021/09/17 02:49:49;;;;;;;24.32;13.98;;;;;;;;;;1889474;76;21049;-50
2021/09/17 02:52:19;;;;;;;18.75;12.75;;;;;;;;;;1883053;76;21116;-51
2021/09/17 02:54:47;;;;;;;29.02;15.18;;;;;;;;;;1883047;75;21034;-49
2021/09/17 02:57:17;;;;;;;21.52;13.15;;;;;;;;;;1883027;76;21046;-49
2021/09/17 02:59:45;;;;;;;26.10;13.22;;;;;;;;;;1883019;75;21095;-51
2021/09/17 03:02:15;;;;;;;23.20;13.10;;;;;;;;;;1883025;75;21072;-49
2021/09/17 03:04:44;;;;;;;32.93;15.83;;;;;;;;;;1883036;76;21025;-48
2021/09/17 03:07:12;;;;;;;38.00;14.63;;;;;;;;;;1882969;75;21026;-48
2021/09/17 03:09:41;;;;;;;28.47;15.10;;;;;;;;;;1882984;76;21010;-48
2021/09/17 03:12:10;;;;;;;33.58;16.15;;;;;;;;;;1883004;76;21095;-49
2021/09/17 03:14:39;;;;;;;21.50;14.43;;;;;;;;;;1882949;76;21025;-50
2021/09/17 03:17:08;;;;;;;24.20;14.13;;;;;;;;;;1882942;75;21038;-49
2021/09/17 03:19:38;;;;;;;28.25;15.00;;;;;;;;;;1882910;75;20994;-50
2021/09/17 03:22:06;;;;;;;21.35;13.62;;;;;;;;;;1882929;76;20998;-50
2021/09/17 03:24:35;;;;;;;29.60;14.80;;;;;;;;;;1883080;75;21030;-48
2021/09/17 03:27:04;;;;;;;29.45;14.60;;;;;;;;;;1882930;76;21014;-50
2021/09/17 03:29:33;;;;;;;35.52;16.20;;;;;;;;;;1882890;75;21508;-49
2021/09/17 03:32:03;;;;;;;37.33;16.30;;;;;;;;;;1882845;75;21037;-48
2021/09/17 03:34:32;;;;;;;22.40;13.40;;;;;;;;;;1883013;75;21038;-49
2021/09/17 03:37:01;;;;;;;23.65;15.10;;;;;;;;;;1882914;75;21034;-49
2021/09/17 03:39:29;;;;;;;29.00;14.75;;;;;;;;;;1883050;75;21099;-49
2021/09/17 03:41:58;;;;;;;30.50;15.20;;;;;;;;;;1883022;76;21025;-48
2021/09/17 03:44:27;;;;;;;27.07;15.18;;;;;;;;;;1882958;76;21083;-48
2021/09/17 03:46:56;;;;;;;27.07;14.63;;;;;;;;;;1882892;75;21118;-49
2021/09/17 03:49:25;;;;;;;24.98;15.32;;;;;;;;;;1883036;76;21073;-49
2021/09/17 03:51:54;;;;;;;29.10;15.90;;;;;;;;;;1891322;74;21054;-49
2021/09/17 03:54:26;;;;;;;30.12;13.98;;;;;;;;;;1891998;75;21088;-51
2021/09/17 03:56:53;;;;;;;28.42;15.13;;;;;;;;;;1891786;75;21547;-50
2021/09/17 03:59:22;;;;;;;22.07;13.95;;;;;;;;;;1891865;75;21034;-50
2021/09/17 04:01:51;;;;;;;26.85;15.83;;;;;;;;;;1891893;74;21120;-51
2021/09/17 04:04:19;;;;;;;29.85;14.78;;;;;;;;;;1891888;74;21104;-50
2021/09/17 04:06:48;;;;;;;30.90;15.78;;;;;;;;;;1891817;74;21042;-49
2021/09/17 04:09:18;;;;;;;26.77;14.45;;;;;;;;;;1891725;75;21046;-50
2021/09/17 04:11:47;;;;;;;27.37;14.33;;;;;;;;;;1891779;75;21100;-49
2021/09/17 04:14:16;;;;;;;21.30;13.35;;;;;;;;;;1891876;75;21100;-50
2021/09/17 04:16:45;;;;;;;26.55;14.65;;;;;;;;;;1891954;76;21038;-49
2021/09/17 04:19:14;;;;;;;30.23;13.72;;;;;;;;;;1891934;75;21164;-50
2021/09/17 04:21:43;;;;;;;24.32;13.53;;;;;;;;;;1891952;74;21116;-47
2021/09/17 04:24:11;;;;;;;22.98;12.80;;;;;;;;;;1891842;76;21018;-47
2021/09/17 04:26:40;;;;;;;22.48;13.80;;;;;;;;;;1891963;76;21010;-50
2021/09/17 04:29:09;;;;;;;25.23;13.58;;;;;;;;;;1891929;74;21034;-49
2021/09/17 04:31:38;;;;;;;22.15;15.03;;;;;;;;;;1891938;76;21042;-47
2021/09/17 04:34:08;;;;;;;32.93;15.13;;;;;;;;;;1892107;75;21512;-47
2021/09/17 04:36:37;;;;;;;27.55;14.75;;;;;;;;;;1891809;75;21081;-50
2021/09/17 04:39:06;;;;;;;24.95;14.83;;;;;;;;;;1891816;74;21046;-49
2021/09/17 04:41:34;;;;;;;26.23;14.68;;;;;;;;;;1891814;76;21089;-47
2021/09/17 04:44:03;;;;;;;32.45;16.37;;;;;;;;;;1891918;75;21076;-49
2021/09/17 04:46:32;;;;;;;30.12;16.50;;;;;;;;;;1891796;76;21088;-50
2021/09/17 04:49:00;;;;;;;30.82;16.12;;;;;;;;;;1891934;74;21042;-49
2021/09/17 04:51:30;;;;;;;36.10;16.90;;;;;;;;;;1881140;75;21187;-49
2021/09/17 04:53:59;;;;;;;30.48;16.25;;;;;;;;;;1872909;77;21051;-50
2021/09/17 04:56:28;;;;;;;31.82;17.73;;;;;;;;;;1872860;75;21003;-49
2021/09/17 04:58:57;;;;;;;44.45;19.57;;;;;;;;;;1872956;76;21133;-49
2021/09/17 05:01:25;;;;;;;43.23;20.92;;;;;;;;;;1872701;76;21031;-49
2021/09/17 05:03:54;;;;;;;64.30;25.20;;;;;;;;;;1872967;75;21077;-50
2021/09/17 05:06:23;;;;;;;55.90;24.87;;;;;;;;;;1872795;75;21113;-48
2021/09/17 05:08:52;;;;;;;57.45;26.15;;;;;;;;;;1872815;76;21101;-51
2021/09/17 05:11:21;;;;;;;48.38;20.85;;;;;;;;;;1872855;77;21085;-47
2021/09/17 05:13:49;;;;;;;38.78;19.73;;;;;;;;;;1872741;75;21027;-49
2021/09/17 05:16:18;;;;;;;42.70;20.37;;;;;;;;;;1872803;75;21105;-47
2021/09/17 05:18:47;;;;;;;36.03;17.95;;;;;;;;;;1872994;77;21031;-48
2021/09/17 05:21:16;;;;;;;37.93;18.75;;;;;;;;;;1872914;76;21000;-49
2021/09/17 05:23:45;;;;;;;35.25;18.50;;;;;;;;;;1873137;76;21026;-50
2021/09/17 05:26:13;;;;;;;32.13;16.75;;;;;;;;;;1872956;77;21090;-47
2021/09/17 05:28:42;;;;;;;35.83;17.07;;;;;;;;;;1873004;75;21031;-49
2021/09/17 05:31:11;;;;;;;36.05;16.70;;;;;;;;;;1872859;75;21106;-48
2021/09/17 05:33:40;;;;;;;45.78;21.55;;;;;;;;;;1872919;76;21089;-47
2021/09/17 05:36:09;;;;;;;42.88;18.55;;;;;;;;;;1872905;75;21109;-50
2021/09/17 05:38:38;;;;;;;34.03;17.25;;;;;;;;;;1872950;77;21059;-46
2021/09/17 05:41:07;;;;;;;35.73;18.05;;;;;;;;;;1872904;75;21074;-48
2021/09/17 05:43:36;;;;;;;30.65;17.45;;;;;;;;;;1872868;75;21047;-49
2021/09/17 05:46:04;;;;;;;42.10;18.12;;;;;;;;;;1873070;75;21109;-47
2021/09/17 05:48:33;;;;;;;31.07;17.65;;;;;;;;;;1872931;75;21093;-48
2021/09/17 05:51:02;;;;;;;46.23;18.42;;;;;;;;;;1872877;76;21055;-50
2021/09/17 05:53:31;;;;;;;27.52;15.98;;;;;;;;;;1872918;75;21039;-46
2021/09/17 05:56:00;;;;;;;40.95;18.00;;;;;;;;;;1872905;75;21043;-48
2021/09/17 05:58:31;;;;;;;29.07;15.70;;;;;;;;;;1872968;77;21039;-47
2021/09/17 06:01:02;;;;;;;40.78;18.90;;;;;;;;;;1872810;75;21663;-50
2021/09/17 06:03:30;;;;;;;29.23;15.90;;;;;;;;;;1872804;75;21042;-47
2021/09/17 06:05:59;;;;;;;27.37;15.25;;;;;;;;;;1872806;77;21043;-50
2021/09/17 06:08:29;;;;;;;29.18;17.15;;;;;;;;;;1872803;75;21043;-48
2021/09/17 06:10:58;;;;;;;34.13;17.25;;;;;;;;;;1872909;76;21054;-49
2021/09/17 06:13:27;;;;;;;31.93;16.10;;;;;;;;;;1872875;75;21086;-47
2021/09/17 06:15:56;;;;;;;26.33;14.87;;;;;;;;;;1873003;75;21042;-49
2021/09/17 06:18:25;;;;;;;23.90;13.35;;;;;;;;;;1872895;75;21042;-49
2021/09/17 06:20:54;;;;;;;23.30;13.18;;;;;;;;;;1872945;77;21042;-48
2021/09/17 06:23:22;;;;;;;17.50;12.23;;;;;;;;;;1872764;75;21080;-49
2021/09/17 06:25:51;;;;;;;21.57;14.00;;;;;;;;;;1872863;75;21019;-47
2021/09/17 06:28:20;;;;;;;21.70;12.75;;;;;;;;;;1872795;77;21020;-47
2021/09/17 06:30:49;;;;;;;22.25;13.53;;;;;;;;;;1872988;76;21019;-49
2021/09/17 06:33:18;;;;;;;30.32;15.88;;;;;;;;;;1872778;76;21117;-50
2021/09/17 06:35:47;;;;;;;21.52;15.03;;;;;;;;;;1872830;75;21035;-50
2021/09/17 06:38:16;;;;;;;27.05;15.20;;;;;;;;;;1872813;76;21043;-49
2021/09/17 06:40:44;;;;;;;24.85;13.18;;;;;;;;;;1872955;76;21038;-49
2021/09/17 06:43:13;;;;;;;19.27;13.20;;;;;;;;;;1872789;75;21059;-48
2021/09/17 06:45:42;;;;;;;21.10;12.00;;;;;;;;;;1872938;75;21040;-49
2021/09/17 06:48:11;;;;;;;23.02;10.53;;;;;;;;;;1872904;75;21035;-50
2021/09/17 06:50:40;;;;;;;24.65;11.60;;;;;;;;;;1872846;75;21031;-49
2021/09/17 06:53:08;;;;;;;16.90;11.08;;;;;;;;;;1872909;76;21039;-50
2021/09/17 06:55:38;;;;;;;21.23;12.90;;;;;;;;;;1872799;75;21054;-49
2021/09/17 06:58:07;;;;;;;19.90;13.00;;;;;;;;;;1872921;75;21101;-49
2021/09/17 07:00:37;;;;;;;23.75;12.58;;;;;;;;;;1872757;75;21101;-47
2021/09/17 07:03:06;;;;;;;16.20;11.20;;;;;;;;;;1872791;76;21093;-50
2021/09/17 07:05:34;;;;;;;27.52;13.15;;;;;;;;;;1872872;77;21097;-49
2021/09/17 07:08:04;;;;;;;22.37;14.13;;;;;;;;;;1872749;77;21031;-49
2021/09/17 07:10:34;;;;;;;19.90;10.88;;;;;;;;;;1872527;75;21023;-46
2021/09/17 07:13:03;;;;;;;17.62;11.18;;;;;;;;;;1872863;75;21129;-50
2021/09/17 07:15:32;;;;;;;15.15;10.32;;;;;;;;;;1872924;77;21055;-48
2021/09/17 07:18:04;;;;;;;14.53;9.18;;;;;;;;;;1872776;75;21042;-49
2021/09/17 07:20:33;;;;;;;17.30;9.15;;;;;;;;;;1872855;75;21031;-48
2021/09/17 07:23:03;;;;;;;11.93;7.95;;;;;;;;;;1872684;75;21093;-50
2021/09/17 07:25:35;;;;;;;10.65;7.47;;;;;;;;;;1872756;75;21035;-49
2021/09/17 07:28:04;;;;;;;12.60;8.55;;;;;;;;;;1872741;76;21031;-47
2021/09/17 07:30:33;;;;;;;14.07;9.20;;;;;;;;;;1872841;75;21035;-49
2021/09/17 07:33:02;;;;;;;16.82;11.05;;;;;;;;;;1872818;75;21035;-47
2021/09/17 07:35:31;;;;;;;24.60;11.12;;;;;;;;;;1872824;75;21035;-48
2021/09/17 07:38:00;;;;;;;17.30;10.03;;;;;;;;;;1872938;75;21031;-47
2021/09/17 07:40:29;;;;;;;15.68;9.85;;;;;;;;;;1873107;76;21082;-50
2021/09/17 07:42:58;;;;;;;15.78;9.68;;;;;;;;;;1871737;76;21082;-49
2021/09/17 07:45:27;;;;;;;18.52;8.98;;;;;;;;;;1871932;75;21035;-50
2021/09/17 07:47:55;;;;;;;16.17;8.80;;;;;;;;;;1872272;75;21164;-48
2021/09/17 07:50:24;;;;;;;15.32;7.60;;;;;;;;;;1872135;76;21035;-49
2021/09/17 07:52:53;;;;;;;13.22;7.45;;;;;;;;;;1872137;75;21133;-50
2021/09/17 07:55:22;;;;;;;13.48;7.75;;;;;;;;;;1872285;76;21078;-47
2021/09/17 07:57:50;;;;;;;14.53;7.83;;;;;;;;;;1872228;75;21089;-51
2021/09/17 08:00:21;;;;;;;13.50;7.95;;;;;;;;;;1872253;75;21019;-50
2021/09/17 08:02:49;;;;;;;10.48;7.55;;;;;;;;;;1872163;75;21027;-51
2021/09/17 08:05:18;;;;;;;12.60;5.70;;;;;;;;;;1872158;75;21074;-50
2021/09/17 08:07:47;;;;;;;14.95;8.38;;;;;;;;;;1872258;75;21015;-48
2021/09/17 08:10:16;;;;;;;11.75;7.80;;;;;;;;;;1872218;75;21016;-47
2021/09/17 08:12:45;;;;;;;13.28;6.30;;;;;;;;;;1872107;75;21019;-48
2021/09/17 08:15:14;;;;;;;9.90;5.75;;;;;;;;;;1872263;75;21078;-48
2021/09/17 08:17:42;;;;;;;14.30;8.50;;;;;;;;;;1872213;75;21003;-51
2021/09/17 08:20:12;;;;;;;8.68;5.92;;;;;;;;;;1872031;77;21047;-50
2021/09/17 08:22:40;;;;;;;10.53;5.83;;;;;;;;;;1872211;75;21019;-50
2021/09/17 08:25:09;;;;;;;10.90;7.30;;;;;;;;;;1872199;75;21156;-49
2021/09/17 08:27:39;;;;;;;8.88;6.30;;;;;;;;;;1872129;75;21079;-49
2021/09/17 08:30:09;;;;;;;8.43;6.20;;;;;;;;;;1872332;75;21043;-48
2021/09/17 08:32:39;;;;;;;9.20;6.85;;;;;;;;;;1872217;75;21153;-51
2021/09/17 08:35:09;;;;;;;10.58;5.80;;;;;;;;;;1872176;77;21183;-49
2021/09/17 08:37:38;;;;;;;13.22;5.92;;;;;;;;;;1872228;75;21144;-46
2021/09/17 08:40:08;;;;;;;12.68;7.17;;;;;;;;;;1872198;75;21039;-50
2021/09/17 08:42:37;;;;;;;13.43;7.10;;;;;;;;;;1871953;75;21039;-51
2021/09/17 08:45:07;;;;;;;9.33;5.10;;;;;;;;;;1872321;75;21093;-49
2021/09/17 08:47:36;;;;;;;10.25;6.50;;;;;;;;;;1872289;75;21047;-47
2021/09/17 08:50:07;;;;;;;10.35;6.22;;;;;;;;;;1871854;75;21134;-50
2021/09/17 08:52:37;;;;;;;13.13;6.90;;;;;;;;;;1872067;75;21118;-50
2021/09/17 08:55:08;;;;;;;10.85;5.62;;;;;;;;;;1871865;76;21093;-47
2021/09/17 08:57:37;;;;;;;6.45;5.72;;;;;;;;;;1872287;75;21105;-48
2021/09/17 09:00:06;;;;;;;7.67;5.80;;;;;;;;;;1872368;76;21105;-48
2021/09/17 09:02:35;;;;;;;8.18;6.12;;;;;;;;;;1872125;75;21050;-49
2021/09/17 09:05:07;;;;;;;9.08;5.67;;;;;;;;;;1872194;77;21070;-47
2021/09/17 09:07:38;;;;;;;7.50;5.72;;;;;;;;;;1872235;76;21047;-48
2021/09/17 09:10:08;;;;;;;12.10;6.25;;;;;;;;;;1872514;77;21137;-48
2021/09/17 09:12:38;;;;;;;8.20;4.92;;;;;;;;;;1872436;75;21473;-48
2021/09/17 09:15:14;;;;;;;8.05;4.70;;;;;;;;;;1870372;76;21027;-49
2021/09/17 09:17:46;;;;;;;15.00;4.50;;;;;;;;;;1872389;75;21043;-49
2021/09/17 09:20:33;;;;;;;9.15;5.40;;;;;;;;;;1881775;75;21032;-50
2021/09/17 09:23:12;;;;;;;7.97;5.97;;;;;;;;;;1872215;76;21121;-50
2021/09/17 09:25:59;;;;;;;7.92;5.78;;;;;;;;;;1850044;75;21080;-46
2021/09/17 09:28:30;;;;;;;10.75;5.92;;;;;;;;;;1872237;75;21169;-47
2021/09/17 09:31:00;;;;;;;10.55;5.53;;;;;;;;;;1872239;77;21045;-50
2021/09/17 09:33:30;;;;;;;11.12;4.62;;;;;;;;;;1872244;76;21032;-51
2021/09/17 09:36:09;;;;;;;10.05;4.97;;;;;;;;;;1872319;75;21036;-49
2021/09/17 09:38:42;;;;;;;11.28;5.45;;;;;;;;;;1872418;76;21084;-46
2021/09/17 09:41:21;;;;;;;9.50;5.28;;;;;;;;;;1872296;75;21108;-47
2021/09/17 09:43:51;;;;;;;12.20;5.78;;;;;;;;;;1872145;77;21106;-47
2021/09/17 09:46:21;;;;;;;10.10;6.42;;;;;;;;;;1869569;75;21009;-51
2021/09/17 09:49:07;;;;;;;8.80;5.78;;;;;;;;;;1872103;76;21435;-52
2021/09/17 09:51:40;;;;;;;7.17;5.55;;;;;;;;;;1872119;77;21052;-52
2021/09/17 09:54:10;;;;;;;9.78;4.62;;;;;;;;;;1872285;75;21033;-51
2021/09/17 09:56:42;;;;;;;5.70;3.83;;;;;;;;;;1872150;75;21029;-53
2021/09/17 09:59:09;;;;;;;10.08;4.80;;;;;;;;;;1872270;75;21545;-51
2021/09/17 10:01:39;;;;;;;7.90;5.97;;;;;;;;;;1872322;75;21048;-53
2021/09/17 10:04:08;;;;;;;12.85;6.55;;;;;;;;;;1872067;75;21154;-53
2021/09/17 10:06:38;;;;;;;7.22;4.37;;;;;;;;;;1872146;76;21080;-51
2021/09/17 10:09:08;;;;;;;9.58;4.50;;;;;;;;;;1871611;76;21076;-50
2021/09/17 10:11:37;;;;;;;16.65;5.12;;;;;;;;;;1872182;76;21064;-50
2021/09/17 10:14:07;;;;;;;7.67;4.87;;;;;;;;;;1872984;75;21042;-47
2021/09/17 10:16:36;;;;;;;8.45;4.42;;;;;;;;;;1873025;75;20997;-50
2021/09/17 10:19:05;;;;;;;10.00;5.00;;;;;;;;;;1873018;76;21115;-47
2021/09/17 10:21:48;;;;;;;8.43;4.60;;;;;;;;;;1872923;76;21110;-49
2021/09/17 10:24:27;;;;;;;9.00;4.78;;;;;;;;;;1872956;75;21078;-49
2021/09/17 10:26:57;;;;;;;7.33;4.47;;;;;;;;;;1873012;75;21527;-49
2021/09/17 10:29:31;;;;;;;10.13;4.53;;;;;;;;;;1872896;76;21005;-48
2021/09/17 10:32:00;;;;;;;10.20;4.42;;;;;;;;;;1872761;75;21021;-51
2021/09/17 10:34:30;;;;;;;7.42;4.10;;;;;;;;;;1872783;75;21099;-50
2021/09/17 10:36:59;;;;;;;12.33;4.85;;;;;;;;;;1872962;76;21448;-51
2021/09/17 10:39:28;;;;;;;14.98;4.97;;;;;;;;;;1872991;77;21072;-48
2021/09/17 10:41:58;;;;;;;8.55;4.70;;;;;;;;;;1872980;76;21025;-47
2021/09/17 10:44:27;;;;;;;11.85;4.80;;;;;;;;;;1872050;75;21025;-50
2021/09/17 10:46:56;;;;;;;15.23;4.62;;;;;;;;;;1873130;75;21021;-49
2021/09/17 10:49:24;;;;;;;11.15;4.80;;;;;;;;;;1872959;75;21045;-50
2021/09/17 10:51:53;;;;;;;10.35;5.08;;;;;;;;;;1872752;75;21114;-50
2021/09/17 10:54:24;;;;;;;11.68;4.92;;;;;;;;;;1872896;75;21061;-50
2021/09/17 10:56:54;;;;;;;11.05;4.75;;;;;;;;;;1871718;76;21029;-49
2021/09/17 10:59:30;;;;;;;10.90;4.83;;;;;;;;;;1872891;76;21045;-50
2021/09/17 11:02:01;;;;;;;6.37;4.05;;;;;;;;;;1872774;77;21080;-49
2021/09/17 11:04:30;;;;;;;12.68;4.62;;;;;;;;;;1872816;75;21053;-47
2021/09/17 11:07:17;;;;;;;10.72;5.00;;;;;;;;;;1872890;76;21033;-50
2021/09/17 11:09:46;;;;;;;8.45;4.90;;;;;;;;;;1872809;76;21053;-48
2021/09/17 11:12:16;;;;;;;7.67;4.50;;;;;;;;;;1872612;75;21455;-47
2021/09/17 11:14:46;;;;;;;7.20;5.05;;;;;;;;;;1872703;76;21001;-51
2021/09/17 11:17:15;;;;;;;11.43;4.95;;;;;;;;;;1872012;75;21037;-50
2021/09/17 11:19:45;;;;;;;8.68;4.67;;;;;;;;;;1872878;76;21036;-48
2021/09/17 11:22:15;;;;;;;6.67;4.33;;;;;;;;;;1872835;75;21095;-49
2021/09/17 11:24:43;;;;;;;9.75;4.75;;;;;;;;;;1872907;75;21562;-49
2021/09/17 11:27:12;;;;;;;8.05;4.67;;;;;;;;;;1872728;76;21049;-50
2021/09/17 11:29:41;;;;;;;7.50;5.30;;;;;;;;;;1872796;75;21073;-51
2021/09/17 11:32:10;;;;;;;8.85;4.90;;;;;;;;;;1872873;77;21041;-51
2021/09/17 11:34:39;;;;;;;10.08;5.33;;;;;;;;;;1872880;76;21165;-50
2021/09/17 11:37:09;;;;;;;6.35;4.28;;;;;;;;;;1872822;76;21041;-51
2021/09/17 11:39:38;;;;;;;9.50;5.30;;;;;;;;;;1872917;75;21126;-49
2021/09/17 11:42:08;;;;;;;9.28;4.37;;;;;;;;;;1872980;75;21036;-49
2021/09/17 11:44:39;;;;;;;8.03;4.83;;;;;;;;;;1872933;76;21091;-50
2021/09/17 11:47:11;;;;;;;12.00;5.60;;;;;;;;;;1872900;77;21463;-47
2021/09/17 11:49:41;;;;;;;7.47;5.20;;;;;;;;;;1872829;77;21037;-50
2021/09/17 11:52:14;;;;;;;6.55;4.85;;;;;;;;;;1872741;77;21036;-50
2021/09/17 11:54:44;;;;;;;6.08;4.10;;;;;;;;;;1871964;75;21061;-48
2021/09/17 11:57:13;;;;;;;7.40;4.33;;;;;;;;;;1871994;76;21001;-49
2021/09/17 11:59:43;;;;;;;9.55;5.25;;;;;;;;;;1872903;76;21037;-47
2021/09/17 12:02:22;;;;;;;8.08;5.12;;;;;;;;;;1873020;75;21056;-49
2021/09/17 12:04:51;;;;;;;12.18;4.72;;;;;;;;;;1872946;75;21036;-49
2021/09/17 12:07:20;;;;;;;7.47;4.72;;;;;;;;;;1872798;76;21134;-49
2021/09/17 12:09:49;;;;;;;12.73;5.42;;;;;;;;;;1872919;77;21036;-51
2021/09/17 12:12:18;;;;;;;7.85;4.80;;;;;;;;;;1872846;75;21130;-48
2021/09/17 12:14:51;;;;;;;7.67;4.05;;;;;;;;;;1873066;76;21036;-51
2021/09/17 12:17:19;;;;;;;11.10;4.30;;;;;;;;;;1873010;75;21503;-49
2021/09/17 12:19:58;;;;;;;8.13;4.53;;;;;;;;;;1872977;75;21103;-50
2021/09/17 12:22:32;;;;;;;6.53;5.87;;;;;;;;;;1872972;76;21459;-50
2021/09/17 12:25:04;;;;;;;7.37;4.40;;;;;;;;;;1872914;75;21024;-51
2021/09/17 12:27:33;;;;;;;8.55;4.35;;;;;;;;;;1872958;77;21036;-47
2021/09/17 12:30:03;;;;;;;14.50;4.50;;;;;;;;;;1872748;76;21098;-51
2021/09/17 12:32:32;;;;;;;9.03;4.12;;;;;;;;;;1872868;76;21119;-50
2021/09/17 12:35:02;;;;;;;6.05;4.10;;;;;;;;;;1872765;75;21053;-48
2021/09/17 12:37:30;;;;;;;8.58;4.28;;;;;;;;;;1872839;76;21040;-48
2021/09/17 12:40:13;;;;;;;14.30;4.97;;;;;;;;;;1872907;75;21037;-48
2021/09/17 12:42:42;;;;;;;5.53;3.87;;;;;;;;;;1872817;76;21463;-49
2021/09/17 12:45:11;;;;;;;5.53;4.22;;;;;;;;;;1872903;75;21049;-51
2021/09/17 12:47:41;;;;;;;10.50;4.00;;;;;;;;;;1872769;76;21036;-51
2021/09/17 12:50:11;;;;;;;9.25;4.22;;;;;;;;;;1872086;76;21126;-51
2021/09/17 12:52:47;;;;;;;8.23;4.22;;;;;;;;;;1872975;76;21094;-50
2021/09/17 12:55:26;;;;;;;8.90;4.33;;;;;;;;;;1872837;75;21065;-51
2021/09/17 12:57:55;;;;;;;8.83;4.10;;;;;;;;;;1872907;77;21015;-47
2021/09/17 13:00:24;;;;;;;9.80;4.78;;;;;;;;;;1872778;76;21005;-49
2021/09/17 13:02:54;;;;;;;8.03;4.80;;;;;;;;;;1872875;77;21053;-49
2021/09/17 13:05:22;;;;;;;13.13;5.92;;;;;;;;;;1872710;77;21094;-48
2021/09/17 13:07:51;;;;;;;13.80;5.65;;;;;;;;;;1872739;76;21033;-49
2021/09/17 13:10:20;;;;;;;12.98;5.42;;;;;;;;;;1872778;75;21149;-51
2021/09/17 13:12:48;;;;;;;12.03;5.37;;;;;;;;;;1872826;76;21153;-48
2021/09/17 13:15:17;;;;;;;11.63;5.30;;;;;;;;;;1872646;75;21098;-50
2021/09/17 13:17:46;;;;;;;9.65;4.78;;;;;;;;;;1872733;75;21005;-49
2021/09/17 13:20:15;;;;;;;12.78;5.03;;;;;;;;;;1872871;75;21111;-50
2021/09/17 13:22:43;;;;;;;8.25;4.90;;;;;;;;;;1872817;75;21072;-51
2021/09/17 13:25:13;;;;;;;9.98;4.25;;;;;;;;;;1872688;75;21029;-51
2021/09/17 13:27:43;;;;;;;8.40;4.40;;;;;;;;;;1872809;75;21005;-51
2021/09/17 13:30:12;;;;;;;10.70;4.53;;;;;;;;;;1872769;75;21115;-51
2021/09/17 13:32:41;;;;;;;7.53;4.70;;;;;;;;;;1872717;76;21029;-51
2021/09/17 13:35:10;;;;;;;10.05;4.70;;;;;;;;;;1872746;75;21065;-51
2021/09/17 13:37:39;;;;;;;11.00;4.10;;;;;;;;;;1872674;76;21096;-48
2021/09/17 13:40:09;;;;;;;15.15;5.25;;;;;;;;;;1872732;75;21036;-50
2021/09/17 13:42:39;;;;;;;10.50;4.60;;;;;;;;;;1872593;76;21033;-52
2021/09/17 13:45:09;;;;;;;7.55;4.15;;;;;;;;;;1872838;75;21036;-48
2021/09/17 13:47:38;;;;;;;6.00;3.87;;;;;;;;;;1872940;75;21005;-48
2021/09/17 13:50:07;;;;;;;6.12;3.95;;;;;;;;;;1872957;77;21033;-48
2021/09/17 13:52:36;;;;;;;8.58;4.12;;;;;;;;;;1872918;77;21032;-48
2021/09/17 13:55:05;;;;;;;6.95;3.92;;;;;;;;;;1872869;75;21155;-50
2021/09/17 13:57:34;;;;;;;10.50;4.55;;;;;;;;;;1872908;75;21033;-48
2021/09/17 14:00:03;;;;;;;21.90;4.85;;;;;;;;;;1872574;77;21032;-51
2021/09/17 14:02:33;;;;;;;10.55;4.55;;;;;;;;;;1872826;76;21075;-50
2021/09/17 14:05:04;;;;;;;8.70;4.65;;;;;;;;;;1872777;76;21029;-50
2021/09/17 14:07:32;;;;;;;12.55;4.65;;;;;;;;;;1872867;75;21158;-48
2021/09/17 14:10:01;;;;;;;5.58;3.83;;;;;;;;;;1872892;75;21099;-49
2021/09/17 14:12:30;;;;;;;10.63;4.08;;;;;;;;;;1872942;76;21037;-51
2021/09/17 14:14:58;;;;;;;15.03;4.60;;;;;;;;;;1872845;75;21064;-51
2021/09/17 14:17:27;;;;;;;10.30;5.40;;;;;;;;;;1872846;75;21017;-49
2021/09/17 14:19:56;;;;;;;12.37;5.72;;;;;;;;;;1872958;76;21043;-52
2021/09/17 14:22:25;;;;;;;9.35;4.30;;;;;;;;;;1872941;75;21037;-51
2021/09/17 14:24:54;;;;;;;9.60;4.53;;;;;;;;;;1872953;77;21040;-51
2021/09/17 14:27:22;;;;;;;11.10;6.03;;;;;;;;;;1872859;75;21104;-50
2021/09/17 14:29:52;;;;;;;10.03;6.00;;;;;;;;;;1872931;77;21008;-49
2021/09/17 14:32:23;;;;;;;9.68;5.87;;;;;;;;;;1872989;75;21037;-50
2021/09/17 14:34:51;;;;;;;13.98;5.90;;;;;;;;;;1872818;75;21514;-51
2021/09/17 14:37:20;;;;;;;20.10;7.28;;;;;;;;;;1872962;75;21037;-51
2021/09/17 14:39:49;;;;;;;14.75;7.05;;;;;;;;;;1872752;77;21088;-50